M I D A S
Marine Information and Data Acquisition System
Tripno 369 of the Zeeleeuw from 2002-12-13 08:24:36 to 2002-12-13 14:47:19
Back to CruiseResearch ActivitiesStationsMapUnderway DataData graphs

EquipmentUnitsComments
TimeDGPSUTC
LatitudeDGPSDM.mWGS84
LongitudeDGPSDM.mWGS84
SpeedMeteo Stationm/sRelative wind speed
DirectionMeteo StationdegRelative wind direction
TemperatureMeteo Stationdeg CelciusAir temperature
PressureMeteo StationPaAtmospheric pressure
HumidityMeteo Station%Relative humidity
Missing or incorrect values are displayed as -999
Metereological data collected by the RV Zeeleeuw from 2002-12-13 08:24:36 to 2002-12-13 14:47:19
Time Latitude Longitude Speed Direction Temperature Pressure Humidity
2002-12-13 08:25 51°11.106 2°44.607 4.4 267 1.3 102110 97
2002-12-13 08:26 51°11.016 2°44.282 3.8 285 1.3 102110 97
2002-12-13 08:27 51°10.929 2°43.96 3.6 281 1.3 102110 97
2002-12-13 08:28 51°10.839 2°43.628 3.6 287 1.3 102100 97
2002-12-13 08:29 51°10.748 2°43.3 3.5 288 1.4 102100 97
2002-12-13 08:30 51°10.66 2°42.974 4.4 297 1.4 102110 97
2002-12-13 08:31 51°10.57 2°42.651 4.9 302 1.4 102100 97
2002-12-13 08:32 51°10.481 2°42.328 4.6 299 1.4 102110 97
2002-12-13 08:33 51°10.392 2°42.005 4.3 273 1.3 102120 97
2002-12-13 08:34 51°10.302 2°41.682 4.4 275 1.3 102100 97
2002-12-13 08:35 51°10.212 2°41.36 4.2 286 1.3 102100 97
2002-12-13 08:36 51°10.121 2°41.039 3.2 283 1.4 102100 97
2002-12-13 08:37 51°10.031 2°40.717 4.8 265 1.4 102100 97
2002-12-13 08:38 51°9.941 2°40.395 4.1 277 1.4 102100 97
2002-12-13 08:39 51°9.851 2°40.076 4 273 1.4 102110 97
2002-12-13 08:40 51°9.765 2°39.767 4 269 1.4 102110 97
2002-12-13 08:41 51°9.672 2°39.435 3.7 275 1.4 102100 97
2002-12-13 08:42 51°9.584 2°39.119 5 279 1.5 102100 97
2002-12-13 08:43 51°9.494 2°38.79 3.9 274 1.5 102100 97
2002-12-13 08:44 51°9.404 2°38.465 4.6 275 1.5 102100 97
2002-12-13 08:45 51°9.315 2°38.137 4.8 278 1.6 102100 97
2002-12-13 08:46 51°9.225 2°37.815 4.5 285 1.6 102100 97
2002-12-13 08:47 51°9.132 2°37.481 4 269 1.6 102100 97
2002-12-13 08:48 51°9.066 2°37.218 1.4 345 1.6 102110 97
2002-12-13 08:49 51°9.069 2°37.164 4 73 1.7 102120 97
2002-12-13 08:50 51°9.082 2°37.153 3.7 100 1.7 102120 97
2002-12-13 08:51 51°9.096 2°37.145 5.8 105 1.7 102110 97
2002-12-13 08:52 51°9.11 2°37.139 4.8 109 1.7 102110 97
2002-12-13 08:53 51°9.123 2°37.136 4.4 112 1.7 102110 97
2002-12-13 08:54 51°9.136 2°37.133 4.9 129 1.7 102110 97
2002-12-13 08:55 51°9.149 2°37.133 4.9 136 1.7 102110 97
2002-12-13 08:56 51°9.159 2°37.133 4.8 137 1.7 102110 97
2002-12-13 08:57 51°9.177 2°37.136 5.4 142 1.7 102110 97
2002-12-13 08:58 51°9.201 2°37.145 5.2 160 1.7 102110 97
2002-12-13 08:59 51°9.224 2°37.16 5.6 163 1.7 102110 97
2002-12-13 09:00 51°9.252 2°37.207 7.1 222 1.7 102110 97
2002-12-13 09:01 51°9.228 2°37.297 7 289 1.7 102110 97
2002-12-13 09:02 51°9.158 2°37.288 5.2 308 1.7 102130 97
2002-12-13 09:03 51°9.102 2°37.242 1.5 343 1.8 102130 97
2002-12-13 09:04 51°9.1 2°37.236 4.5 9 1.9 102130 97
2002-12-13 09:05 51°9.103 2°37.226 3.7 3 2 102130 96
2002-12-13 09:06 51°9.103 2°37.216 4.5 7 2.1 102140 96
2002-12-13 09:07 51°9.108 2°37.212 4.1 3 2.1 102150 96
2002-12-13 09:08 51°9.114 2°37.215 3.1 355 2.1 102150 96
2002-12-13 09:09 51°9.12 2°37.217 2.3 340 2.2 102150 96
2002-12-13 09:10 51°9.122 2°37.213 1.5 316 2.1 102150 96
2002-12-13 09:11 51°9.121 2°37.209 2.7 307 2.2 102150 96
2002-12-13 09:12 51°9.119 2°37.207 3 305 2.1 102150 96
2002-12-13 09:13 51°9.113 2°37.205 4.6 286 2.2 102150 96
2002-12-13 09:14 51°9.093 2°37.199 3.9 305 2.1 102150 96
2002-12-13 09:15 51°9.06 2°37.147 0.4 338 2.1 102150 96
2002-12-13 09:16 51°9.051 2°37.084 3.6 5 2.1 102140 96
2002-12-13 09:17 51°9.061 2°37.031 2.6 49 2.1 102140 96
2002-12-13 09:18 51°9.085 2°36.989 2.5 82 2.2 102150 96
2002-12-13 09:19 51°9.116 2°36.969 3.7 109 2.1 102150 96
2002-12-13 09:20 51°9.15 2°36.968 3.6 131 2.1 102150 96
2002-12-13 09:21 51°9.183 2°36.984 3 149 2.1 102150 96
2002-12-13 09:22 51°9.211 2°37.017 4 169 2.1 102150 96
2002-12-13 09:23 51°9.231 2°37.059 3.6 184 2.1 102150 96
2002-12-13 09:24 51°9.242 2°37.106 4.7 209 2.1 102140 96
2002-12-13 09:25 51°9.254 2°37.178 5.4 190 2.1 102150 96
2002-12-13 09:26 51°9.348 2°37.223 1.8 144 2.1 102150 96
2002-12-13 09:27 51°9.377 2°37.082 4.6 294 2.1 102160 96
2002-12-13 09:28 51°9.305 2°36.863 6.6 273 2.1 102150 96
2002-12-13 09:29 51°9.203 2°36.54 6.8 275 2.1 102150 96
2002-12-13 09:30 51°9.104 2°36.217 7 266 2.1 102160 97
2002-12-13 09:31 51°9.007 2°35.892 6.9 271 2.1 102160 97
2002-12-13 09:32 51°8.909 2°35.566 6.6 275 2.1 102160 97
2002-12-13 09:33 51°8.812 2°35.238 7.1 272 2 102160 97
2002-12-13 09:34 51°8.716 2°34.912 7.1 277 2.1 102160 97
2002-12-13 09:35 51°8.619 2°34.585 6.6 275 2.1 102160 97
2002-12-13 09:36 51°8.523 2°34.262 7.5 282 2.1 102160 97
2002-12-13 09:37 51°8.43 2°33.946 8.9 279 2.1 102160 97
2002-12-13 09:38 51°8.331 2°33.609 7.4 282 2.1 102160 97
2002-12-13 09:39 51°8.257 2°33.354 5.3 293 2.1 102170 97
2002-12-13 09:40 51°8.207 2°33.183 4.3 308 2.1 102170 97
2002-12-13 09:41 51°8.16 2°33.042 6.3 300 2.2 102170 97
2002-12-13 09:42 51°8.1 2°33.001 7.4 281 2.2 102160 97
2002-12-13 09:43 51°8.062 2°32.99 6.8 290 2.2 102160 96
2002-12-13 09:44 51°8.059 2°32.984 5.2 305 2.2 102180 96
2002-12-13 09:45 51°8.057 2°32.973 4.2 306 2.3 102160 96
2002-12-13 09:46 51°8.055 2°32.962 3.9 304 2.3 102160 96
2002-12-13 09:47 51°8.052 2°32.952 4.1 308 2.3 102160 96
2002-12-13 09:48 51°8.05 2°32.943 5.6 309 2.3 102150 96
2002-12-13 09:49 51°8.048 2°32.934 3.2 304 2.3 102150 96
2002-12-13 09:50 51°8.047 2°32.925 4.8 306 2.4 102150 96
2002-12-13 09:51 51°8.045 2°32.916 2.7 326 2.4 102170 96
2002-12-13 09:52 51°8.043 2°32.906 2.5 318 2.4 102170 96
2002-12-13 09:53 51°8.038 2°32.894 5.2 305 2.4 102170 96
2002-12-13 09:54 51°8.032 2°32.88 2 323 2.4 102170 96
2002-12-13 09:55 51°8.024 2°32.864 1.8 314 2.4 102170 96
2002-12-13 09:56 51°8.015 2°32.847 3.7 311 2.4 102170 96
2002-12-13 09:57 51°8.005 2°32.755 2.5 133 2.4 102180 96
2002-12-13 09:58 51°8.097 2°32.718 6.8 181 2.5 102170 96
2002-12-13 09:59 51°8.12 2°32.87 8.4 238 2.4 102160 96
2002-12-13 10:00 51°8.074 2°32.954 7.6 236 2.5 102150 96
2002-12-13 10:01 51°8.063 2°32.996 5.8 209 2.5 102170 96
2002-12-13 10:02 51°8.066 2°32.992 5.3 201 2.5 102170 96
2002-12-13 10:03 51°8.069 2°32.989 5.9 216 2.4 102170 96
2002-12-13 10:04 51°8.072 2°32.989 5.3 212 2.4 102170 96
2002-12-13 10:05 51°8.076 2°32.99 5.8 219 2.4 102170 96
2002-12-13 10:06 51°8.081 2°32.993 6.1 217 2.4 102170 96
2002-12-13 10:07 51°8.084 2°32.997 5.5 239 2.4 102170 96
2002-12-13 10:08 51°8.084 2°33.001 5.9 249 2.4 102170 96
2002-12-13 10:09 51°8.081 2°32.999 5.8 276 2.5 102160 96
2002-12-13 10:10 51°8.073 2°32.992 6 321 2.4 102160 96
2002-12-13 10:11 51°8.056 2°32.955 2.5 357 2.4 102160 96
2002-12-13 10:12 51°8.058 2°32.894 5 44 2.4 102160 96
2002-12-13 10:13 51°8.086 2°32.845 5.4 108 2.4 102150 96
2002-12-13 10:14 51°8.126 2°32.84 5.9 146 2.4 102150 95
2002-12-13 10:15 51°8.16 2°32.872 5.6 185 2.4 102150 96
2002-12-13 10:16 51°8.174 2°32.924 7.5 217 2.4 102140 95
2002-12-13 10:17 51°8.163 2°32.972 7.4 262 2.4 102150 95
2002-12-13 10:18 51°8.133 2°32.981 6 302 2.4 102140 95
2002-12-13 10:19 51°8.109 2°32.938 4.9 359 2.5 102150 95
2002-12-13 10:20 51°8.083 2°32.843 1.6 321 2.5 102150 95
2002-12-13 10:21 51°8.047 2°32.554 4.5 297 2.5 102160 95
2002-12-13 10:22 51°8.126 2°32.261 4.8 158 2.5 102160 95
2002-12-13 10:23 51°8.307 2°32.033 4.2 150 2.5 102150 95
2002-12-13 10:24 51°8.46 2°32.116 9 206 2.5 102130 95
2002-12-13 10:25 51°8.48 2°32.264 8.9 205 2.5 102120 95
2002-12-13 10:26 51°8.504 2°32.35 6.2 185 2.5 102130 95
2002-12-13 10:27 51°8.525 2°32.38 7 169 2.5 102150 95
2002-12-13 10:28 51°8.546 2°32.391 6.7 154 2.4 102150 95
2002-12-13 10:29 51°8.564 2°32.397 7.9 165 2.5 102140 95
2002-12-13 10:30 51°8.582 2°32.4 8.3 163 2.4 102140 95
2002-12-13 10:31 51°8.597 2°32.398 6.9 155 2.4 102150 95
2002-12-13 10:32 51°8.611 2°32.394 7.2 142 2.5 102150 95
2002-12-13 10:33 51°8.625 2°32.387 7.6 142 2.5 102150 95
2002-12-13 10:34 51°8.637 2°32.378 6.1 137 2.4 102150 95
2002-12-13 10:35 51°8.649 2°32.367 6.7 126 2.4 102150 95
2002-12-13 10:36 51°8.681 2°32.358 5.4 91 2.5 102150 95
2002-12-13 10:37 51°8.701 2°32.254 3.1 324 2.5 102160 95
2002-12-13 10:38 51°8.638 2°32.208 9.7 277 2.5 102140 95
2002-12-13 10:39 51°8.561 2°32.22 9.3 267 2.5 102120 95
2002-12-13 10:40 51°8.491 2°32.232 9.5 275 2.6 102120 95
2002-12-13 10:41 51°8.487 2°32.224 7 271 2.6 102130 95
2002-12-13 10:42 51°8.486 2°32.213 8 279 2.6 102140 95
2002-12-13 10:43 51°8.481 2°32.203 8 267 2.6 102130 95
2002-12-13 10:44 51°8.475 2°32.2 8.8 249 2.6 102120 95
2002-12-13 10:45 51°8.472 2°32.201 8 240 2.6 102130 95
2002-12-13 10:46 51°8.469 2°32.205 7.6 215 2.5 102120 95
2002-12-13 10:47 51°8.469 2°32.216 8.4 217 2.6 102120 95
2002-12-13 10:48 51°8.469 2°32.232 8.2 219 2.5 102120 95
2002-12-13 10:49 51°8.469 2°32.247 7.5 220 2.6 102120 95
2002-12-13 10:50 51°8.473 2°32.265 6.9 212 2.6 102110 95
2002-12-13 10:51 51°8.478 2°32.284 8.3 210 2.6 102120 95
2002-12-13 10:52 51°8.471 2°32.331 9.6 250 2.6 102110 95
2002-12-13 10:53 51°8.427 2°32.352 9.7 292 2.7 102090 95
2002-12-13 10:54 51°8.382 2°32.293 2.3 330 2.6 102100 95
2002-12-13 10:55 51°8.368 2°32.209 6 9 2.6 102110 94
2002-12-13 10:56 51°8.376 2°32.129 6.3 37 2.6 102120 94
2002-12-13 10:57 51°8.403 2°32.067 6.5 73 2.7 102120 95
2002-12-13 10:58 51°8.439 2°32.032 6.9 97 2.7 102120 94
2002-12-13 10:59 51°8.478 2°32.023 6.1 119 2.7 102120 94
2002-12-13 11:00 51°8.509 2°32.036 7.2 145 2.8 102140 95
2002-12-13 11:01 51°8.535 2°32.061 8.1 164 2.8 102140 95
2002-12-13 11:02 51°8.555 2°32.091 8.3 180 2.8 102140 94
2002-12-13 11:03 51°8.57 2°32.122 7.4 198 2.7 102140 94
2002-12-13 11:04 51°8.575 2°32.151 7.9 211 2.7 102140 94
2002-12-13 11:05 51°8.573 2°32.175 7.1 228 2.7 102150 94
2002-12-13 11:06 51°8.564 2°32.199 8.6 219 2.8 102150 94
2002-12-13 11:07 51°8.56 2°32.227 8.4 212 2.7 102140 94
2002-12-13 11:08 51°8.566 2°32.26 7.7 177 2.8 102150 94
2002-12-13 11:09 51°8.582 2°32.296 7.7 168 2.7 102150 94
2002-12-13 11:10 51°8.601 2°32.336 7.4 173 2.8 102150 94
2002-12-13 11:11 51°8.619 2°32.377 7.7 173 2.8 102150 94
2002-12-13 11:12 51°8.638 2°32.421 8.3 167 2.7 102160 94
2002-12-13 11:13 51°8.66 2°32.463 7.8 159 2.7 102160 94
2002-12-13 11:14 51°8.683 2°32.506 7 158 2.8 102160 94
2002-12-13 11:15 51°8.708 2°32.547 6.9 157 2.8 102160 94
2002-12-13 11:16 51°8.735 2°32.588 6.5 147 2.8 102160 94
2002-12-13 11:17 51°8.763 2°32.627 7.4 152 2.8 102160 94
2002-12-13 11:18 51°8.792 2°32.668 7.1 146 2.9 102160 94
2002-12-13 11:19 51°8.821 2°32.706 6.3 144 2.9 102160 94
2002-12-13 11:20 51°8.852 2°32.749 6.9 139 2.9 102170 94
2002-12-13 11:21 51°8.883 2°32.793 6.8 145 3 102160 94
2002-12-13 11:22 51°8.916 2°32.835 6.9 138 3 102160 94
2002-12-13 11:23 51°8.949 2°32.876 7 133 3 102130 94
2002-12-13 11:24 51°8.982 2°32.919 7.5 149 3 102130 94
2002-12-13 11:25 51°9.015 2°32.962 8 144 3 102130 94
2002-12-13 11:26 51°9.051 2°33.001 7.7 140 3.1 102130 94
2002-12-13 11:27 51°9.085 2°33.041 7.1 145 3 102130 94
2002-12-13 11:28 51°9.115 2°33.08 7.8 134 3 102130 94
2002-12-13 11:29 51°9.144 2°33.116 5.9 142 3.1 102120 94
2002-12-13 11:30 51°9.174 2°33.15 7.1 147 3.1 102120 94
2002-12-13 11:31 51°9.201 2°33.176 7.8 148 3.1 102130 94
2002-12-13 11:32 51°9.221 2°33.197 7.5 161 3.1 102120 94
2002-12-13 11:33 51°9.233 2°33.231 7.5 199 3.2 102120 94
2002-12-13 11:34 51°9.228 2°33.266 8.9 229 3.2 102110 94
2002-12-13 11:35 51°9.207 2°33.275 8.7 270 3.2 102110 94
2002-12-13 11:36 51°9.191 2°33.252 9.4 298 3.2 102120 94
2002-12-13 11:37 51°9.182 2°33.221 7.5 303 3.2 102120 94
2002-12-13 11:38 51°9.176 2°33.19 7.9 296 3.3 102120 94
2002-12-13 11:39 51°9.172 2°33.163 6.2 320 3.2 102120 94
2002-12-13 11:40 51°9.166 2°33.134 6.3 299 3.2 102120 94
2002-12-13 11:41 51°9.154 2°33.09 5.7 296 3.3 102120 94
2002-12-13 11:42 51°9.139 2°33.034 3.7 327 3.2 102120 94
2002-12-13 11:43 51°9.127 2°32.965 1.5 341 3.3 102120 94
2002-12-13 11:44 51°9.122 2°32.887 1.5 333 3.3 102120 94
2002-12-13 11:45 51°9.116 2°32.81 2.4 318 3.3 102120 94
2002-12-13 11:46 51°9.106 2°32.754 7.7 317 3.2 102120 94
2002-12-13 11:47 51°9.098 2°32.713 7.3 304 3.2 102120 94
2002-12-13 11:48 51°9.096 2°32.685 5.8 309 3.2 102120 94
2002-12-13 11:49 51°9.087 2°32.658 8.8 280 3.3 102120 94
2002-12-13 11:50 51°9.059 2°32.653 9.3 234 3.3 102120 94
2002-12-13 11:51 51°9.043 2°32.686 7.6 197 3.2 102110 94
2002-12-13 11:52 51°9.045 2°32.714 6.7 181 3.3 102120 94
2002-12-13 11:53 51°9.054 2°32.735 9.5 169 3.2 102130 94
2002-12-13 11:54 51°9.065 2°32.751 7.2 167 3.2 102130 94
2002-12-13 11:55 51°9.076 2°32.765 7.7 168 3.2 102120 94
2002-12-13 11:56 51°9.088 2°32.774 7.6 162 3.2 102130 94
2002-12-13 11:57 51°9.099 2°32.778 7.2 159 3.2 102130 94
2002-12-13 11:58 51°9.11 2°32.777 7.8 151 3.2 102120 94
2002-12-13 11:59 51°9.121 2°32.773 7.8 151 3.2 102120 94
2002-12-13 12:00 51°9.132 2°32.766 7.8 145 3.2 102120 94
2002-12-13 12:01 51°9.143 2°32.759 7.9 142 3.2 102120 94
2002-12-13 12:02 51°9.154 2°32.749 6.6 139 3.2 102120 94
2002-12-13 12:03 51°9.164 2°32.737 7.4 138 3.3 102130 94
2002-12-13 12:04 51°9.173 2°32.718 8.1 142 3.2 102120 94
2002-12-13 12:05 51°9.181 2°32.695 6.6 125 3.2 102120 94
2002-12-13 12:06 51°9.193 2°32.678 6.6 113 3.3 102120 94
2002-12-13 12:07 51°9.212 2°32.666 6.9 106 3.3 102120 94
2002-12-13 12:08 51°9.258 2°32.624 6.1 20 3.3 102140 94
2002-12-13 12:09 51°9.248 2°32.505 9.3 284 3.3 102140 94
2002-12-13 12:10 51°9.178 2°32.502 10.8 230 3.3 102100 94
2002-12-13 12:11 51°9.124 2°32.605 10.1 206 3.3 102110 93
2002-12-13 12:12 51°9.114 2°32.7 7.1 190 3.3 102100 93
2002-12-13 12:13 51°9.122 2°32.723 5.8 185 3.3 102120 94
2002-12-13 12:14 51°9.125 2°32.725 8.7 182 3.3 102120 94
2002-12-13 12:15 51°9.136 2°32.727 7.5 178 3.2 102110 93
2002-12-13 12:16 51°9.14 2°32.732 8.8 200 3.3 102110 94
2002-12-13 12:17 51°9.144 2°32.734 9.1 203 3.2 102110 93
2002-12-13 12:18 51°9.145 2°32.731 8.6 221 3.2 102120 93
2002-12-13 12:19 51°9.144 2°32.724 8.9 225 3.2 102120 93
2002-12-13 12:20 51°9.141 2°32.716 8.3 230 3.2 102120 93
2002-12-13 12:21 51°9.137 2°32.709 8.5 218 3.2 102120 93
2002-12-13 12:22 51°9.13 2°32.716 10.5 223 3.3 102100 93
2002-12-13 12:23 51°9.111 2°32.736 9 233 3.3 102110 93
2002-12-13 12:24 51°9.078 2°32.743 9.1 257 3.3 102110 93
2002-12-13 12:25 51°9.043 2°32.728 8.5 264 3.3 102110 93
2002-12-13 12:26 51°9.013 2°32.701 8.7 295 3.2 102110 93
2002-12-13 12:27 51°8.988 2°32.646 4.4 317 3.3 102110 93
2002-12-13 12:28 51°8.981 2°32.574 5.4 4 3.2 102120 93
2002-12-13 12:29 51°8.993 2°32.505 6.5 36 3.3 102130 93
2002-12-13 12:30 51°9.021 2°32.459 6.6 79 3.3 102140 94
2002-12-13 12:31 51°9.055 2°32.442 7.2 130 3.3 102130 94
2002-12-13 12:32 51°9.087 2°32.471 8.6 179 3.3 102120 94
2002-12-13 12:33 51°9.089 2°32.57 11.8 222 3.3 102110 94
2002-12-13 12:34 51°9.037 2°32.61 8.5 256 3.3 102120 94
2002-12-13 12:35 51°9.034 2°32.589 9.7 299 3.3 102110 94
2002-12-13 12:36 51°9.035 2°32.56 4.8 318 3.3 102110 93
2002-12-13 12:37 51°9.037 2°32.53 2.8 315 3.3 102120 94
2002-12-13 12:38 51°9.026 2°32.484 10 290 3.2 102120 93
2002-12-13 12:39 51°8.974 2°32.47 10.7 237 3.2 102110 94
2002-12-13 12:40 51°8.938 2°32.626 8.4 185 3.2 102100 93
2002-12-13 12:41 51°8.989 2°32.907 12.5 195 3.2 102090 94
2002-12-13 12:42 51°9.048 2°33.241 10.8 189 3.2 102090 94
2002-12-13 12:43 51°9.106 2°33.58 11.4 191 3.2 102080 94
2002-12-13 12:44 51°9.156 2°33.911 12.4 196 3.3 102090 94
2002-12-13 12:45 51°9.206 2°34.259 11 195 3.3 102090 94
2002-12-13 12:46 51°9.251 2°34.578 10.4 192 3.3 102090 94
2002-12-13 12:47 51°9.306 2°34.92 12 199 3.3 102100 94
2002-12-13 12:48 51°9.365 2°35.237 11.7 197 3.3 102100 94
2002-12-13 12:49 51°9.427 2°35.57 11.9 199 3.3 102100 94
2002-12-13 12:50 51°9.498 2°35.894 11.6 195 3.2 102110 94
2002-12-13 12:51 51°9.575 2°36.215 11.7 197 3.2 102110 94
2002-12-13 12:52 51°9.651 2°36.536 11.7 198 3.2 102100 94
2002-12-13 12:53 51°9.727 2°36.856 10.3 198 3.2 102110 94
2002-12-13 12:54 51°9.801 2°37.173 10.9 198 3.2 102110 94
2002-12-13 12:55 51°9.877 2°37.502 11 202 3.3 102120 94
2002-12-13 12:56 51°9.953 2°37.825 10.2 202 3.3 102120 94
2002-12-13 12:57 51°10.029 2°38.153 10.8 203 3.3 102120 94
2002-12-13 12:58 51°10.103 2°38.471 10.7 198 3.3 102120 94
2002-12-13 12:59 51°10.178 2°38.792 10.4 204 3.3 102120 94
2002-12-13 13:00 51°10.25 2°39.108 10.8 206 3.3 102110 94
2002-12-13 13:01 51°10.326 2°39.435 10.6 205 3.3 102120 94
2002-12-13 13:02 51°10.404 2°39.728 7.8 175 3.3 102120 94
2002-12-13 13:03 51°10.495 2°39.717 1.8 33 3.3 102140 94
2002-12-13 13:04 51°10.502 2°39.591 4.1 305 3.3 102160 94
2002-12-13 13:05 51°10.465 2°39.449 6.3 291 3.4 102150 94
2002-12-13 13:06 51°10.392 2°39.373 6.9 281 3.4 102140 94
2002-12-13 13:07 51°10.308 2°39.28 7.8 281 3.3 102140 94
2002-12-13 13:08 51°10.244 2°39.175 4.6 300 3.3 102140 94
2002-12-13 13:09 51°10.19 2°39.096 6.6 258 3.3 102150 94
2002-12-13 13:10 51°10.141 2°39.147 6.7 197 3.3 102140 94
2002-12-13 13:11 51°10.18 2°39.22 5.4 161 3.3 102140 94
2002-12-13 13:12 51°10.242 2°39.186 1.8 53 3.3 102140 94
2002-12-13 13:13 51°10.265 2°39.072 2.9 6 3.3 102150 94
2002-12-13 13:14 51°10.264 2°39.017 1.7 333 3.3 102150 94
2002-12-13 13:15 51°10.258 2°38.963 1.3 340 3.3 102150 94
2002-12-13 13:16 51°10.251 2°38.914 0.8 334 3.3 102150 94
2002-12-13 13:17 51°10.245 2°38.867 1.5 334 3.3 102150 94
2002-12-13 13:18 51°10.237 2°38.82 1.2 324 3.2 102150 94
2002-12-13 13:19 51°10.228 2°38.774 2 326 3.3 102150 94
2002-12-13 13:20 51°10.219 2°38.731 0.9 335 3.3 102150 94
2002-12-13 13:21 51°10.204 2°38.681 4.9 305 3.3 102150 94
2002-12-13 13:22 51°10.173 2°38.638 6.3 278 3.3 102150 94
2002-12-13 13:23 51°10.134 2°38.625 6.4 245 3.3 102130 94
2002-12-13 13:24 51°10.102 2°38.644 6.2 215 3.3 102130 94
2002-12-13 13:25 51°10.097 2°38.681 5.3 175 3.3 102130 94
2002-12-13 13:26 51°10.115 2°38.709 5.1 157 3.3 102130 94
2002-12-13 13:27 51°10.142 2°38.724 4.4 148 3.3 102140 94
2002-12-13 13:28 51°10.171 2°38.729 4.3 135 3.3 102140 94
2002-12-13 13:29 51°10.197 2°38.728 4.1 131 3.3 102140 94
2002-12-13 13:30 51°10.218 2°38.725 4.4 133 3.3 102140 94
2002-12-13 13:31 51°10.235 2°38.719 4.4 138 3.3 102140 94
2002-12-13 13:32 51°10.251 2°38.711 5.2 142 3.3 102140 94
2002-12-13 13:33 51°10.266 2°38.7 5.3 136 3.3 102140 94
2002-12-13 13:34 51°10.297 2°38.726 5.8 161 3.2 102140 94
2002-12-13 13:35 51°10.324 2°38.767 4.8 187 3.2 102140 94
2002-12-13 13:36 51°10.383 2°38.982 10.7 205 3.2 102120 94
2002-12-13 13:37 51°10.45 2°39.3 11.3 208 3.2 102120 94
2002-12-13 13:38 51°10.517 2°39.623 11.1 205 3.3 102120 94
2002-12-13 13:39 51°10.579 2°39.943 11.4 205 3.2 102120 94
2002-12-13 13:40 51°10.644 2°40.273 10.6 198 3.3 102120 94
2002-12-13 13:41 51°10.71 2°40.597 10.1 208 3.3 102120 94
2002-12-13 13:42 51°10.775 2°40.92 11.1 205 3.3 102120 94
2002-12-13 13:43 51°10.829 2°41.246 11.4 206 3.3 102110 94
2002-12-13 13:44 51°10.884 2°41.572 11.3 203 3.3 102120 94
2002-12-13 13:45 51°10.942 2°41.897 11.4 208 3.3 102120 94
2002-12-13 13:46 51°10.999 2°42.223 11.8 202 3.3 102110 94
2002-12-13 13:47 51°11.055 2°42.542 10.2 205 3.3 102110 94
2002-12-13 13:48 51°11.115 2°42.876 11.4 206 3.3 102120 94
2002-12-13 13:49 51°11.171 2°43.19 10.7 206 3.3 102120 94
2002-12-13 13:50 51°11.229 2°43.517 10.7 203 3.4 102120 94
2002-12-13 13:51 51°11.287 2°43.84 10.6 204 3.4 102120 94
2002-12-13 13:52 51°11.348 2°44.176 10.7 205 3.4 102120 94
2002-12-13 13:53 51°11.407 2°44.505 10 206 3.4 102120 94
2002-12-13 13:54 51°11.464 2°44.823 10.2 200 3.4 102120 94
2002-12-13 13:55 51°11.521 2°45.151 10.1 200 3.4 102120 94
2002-12-13 13:56 51°11.578 2°45.468 10.1 200 3.5 102120 94
2002-12-13 13:57 51°11.656 2°45.782 9.6 203 3.5 102120 94
2002-12-13 13:58 51°11.734 2°46.1 9.6 197 3.5 102130 94
2002-12-13 13:59 51°11.81 2°46.408 9.8 202 3.5 102130 94
2002-12-13 14:00 51°11.887 2°46.723 9.6 204 3.5 102120 94
2002-12-13 14:01 51°11.961 2°47.036 10.4 203 3.6 102130 94
2002-12-13 14:02 51°12.036 2°47.348 10.3 203 3.6 102120 94
2002-12-13 14:03 51°12.121 2°47.654 10.1 200 3.6 102120 94
2002-12-13 14:04 51°12.215 2°47.956 9.3 200 3.6 102120 94
2002-12-13 14:05 51°12.312 2°48.258 9.6 204 3.6 102130 94
2002-12-13 14:06 51°12.413 2°48.554 10 206 3.6 102130 94
2002-12-13 14:07 51°12.513 2°48.851 9.8 202 3.7 102130 94
2002-12-13 14:08 51°12.614 2°49.147 10.4 205 3.7 102130 94
2002-12-13 14:09 51°12.714 2°49.443 9.7 204 3.7 102130 94
2002-12-13 14:10 51°12.815 2°49.738 10.6 205 3.8 102130 94
2002-12-13 14:11 51°12.915 2°50.033 10.1 207 3.8 102130 94
2002-12-13 14:12 51°13.015 2°50.329 9.2 207 3.8 102130 94
2002-12-13 14:13 51°13.115 2°50.625 9.9 207 3.8 102130 94
2002-12-13 14:14 51°13.217 2°50.927 10.1 208 3.7 102130 94
2002-12-13 14:15 51°13.317 2°51.218 10.1 204 3.8 102120 94
2002-12-13 14:16 51°13.418 2°51.513 10.3 207 3.8 102130 94
2002-12-13 14:17 51°13.521 2°51.813 9.8 212 3.8 102120 94
2002-12-13 14:18 51°13.618 2°52.103 10.7 201 3.8 102130 94
2002-12-13 14:19 51°13.718 2°52.401 10.2 205 3.8 102130 94
2002-12-13 14:20 51°13.815 2°52.69 9.9 207 3.8 102130 94
2002-12-13 14:21 51°13.914 2°52.985 9.7 199 3.9 102130 94
2002-12-13 14:22 51°14.012 2°53.28 11.3 203 3.8 102120 94
2002-12-13 14:23 51°14.108 2°53.574 9.6 199 3.9 102130 94
2002-12-13 14:24 51°14.205 2°53.862 8.6 207 3.9 102130 94
2002-12-13 14:25 51°14.299 2°54.15 9.8 213 3.9 102130 94
2002-12-13 14:26 51°14.37 2°54.444 9.3 204 3.9 102130 94
2002-12-13 14:27 51°14.401 2°54.75 11.2 220 3.9 102130 93
2002-12-13 14:28 51°14.364 2°55.053 10.7 224 3.9 102140 93
2002-12-13 14:29 51°14.267 2°55.267 8.7 233 3.8 102130 93
2002-12-13 14:30 51°14.176 2°55.371 7.5 239 3.8 102140 93
2002-12-13 14:31 51°14.09 2°55.436 6.1 236 3.8 102130 93
2002-12-13 14:32 51°14.007 2°55.497 6.8 235 3.8 102140 93
2002-12-13 14:33 51°13.924 2°55.56 6 241 3.8 102140 93
2002-12-13 14:34 51°13.847 2°55.62 5.9 244 3.8 102140 93
2002-12-13 14:35 51°13.783 2°55.68 5.6 236 3.8 102140 93
2002-12-13 14:36 51°13.738 2°55.758 5.2 228 3.8 102140 93
2002-12-13 14:37 51°13.701 2°55.842 5.6 232 3.8 102140 93
2002-12-13 14:38 51°13.664 2°55.928 6.1 231 3.8 102140 93
2002-12-13 14:39 51°13.629 2°56.015 5.5 234 3.8 102150 93
2002-12-13 14:40 51°13.598 2°56.079 5.3 235 3.8 102150 93
2002-12-13 14:41 51°13.591 2°56.089 4 250 3.8 102150 93
2002-12-13 14:42 51°13.582 2°56.111 3.4 216 3.9 102150 93
2002-12-13 14:43 51°13.585 2°56.103 4 193 3.9 102150 93
2002-12-13 14:44 51°13.589 2°56.118 3.6 182 3.9 102150 93
2002-12-13 14:45 51°13.59 2°56.123 3.8 202 3.9 102150 93
2002-12-13 14:46 51°13.589 2°56.131 4.8 224 3.9 102150 93